sensor_id;sensor_type;location;lat;lon;timestamp;temperature;humidity
51839;DHT22;37886;53.174;6.368;2023-04-03T00:00:09;1.80;99.90
51839;DHT22;37886;53.174;6.368;2023-04-03T00:02:35;1.70;99.90
51839;DHT22;37886;53.174;6.368;2023-04-03T00:05:01;1.70;99.90
51839;DHT22;37886;53.174;6.368;2023-04-03T00:07:26;1.70;99.90
51839;DHT22;37886;53.174;6.368;2023-04-03T00:09:52;1.70;99.90
51839;DHT22;37886;53.174;6.368;2023-04-03T00:12:18;1.80;99.90
51839;DHT22;37886;53.174;6.368;2023-04-03T00:14:43;1.80;99.90
51839;DHT22;37886;53.174;6.368;2023-04-03T00:17:09;1.80;99.90
51839;DHT22;37886;53.174;6.368;2023-04-03T00:19:35;1.80;99.90
51839;DHT22;37886;53.174;6.368;2023-04-03T00:22:01;1.90;99.90
51839;DHT22;37886;53.174;6.368;2023-04-03T00:24:26;1.90;99.90
51839;DHT22;37886;53.174;6.368;2023-04-03T00:26:52;1.90;99.90
51839;DHT22;37886;53.174;6.368;2023-04-03T00:29:18;2.00;99.90
51839;DHT22;37886;53.174;6.368;2023-04-03T00:31:44;2.00;99.90
51839;DHT22;37886;53.174;6.368;2023-04-03T00:34:09;2.00;99.90
51839;DHT22;37886;53.174;6.368;2023-04-03T00:36:35;2.10;99.90
51839;DHT22;37886;53.174;6.368;2023-04-03T00:39:01;2.10;99.90
51839;DHT22;37886;53.174;6.368;2023-04-03T00:41:26;2.10;99.90
51839;DHT22;37886;53.174;6.368;2023-04-03T00:43:52;2.10;99.90
51839;DHT22;37886;53.174;6.368;2023-04-03T00:46:18;2.10;99.90
51839;DHT22;37886;53.174;6.368;2023-04-03T00:48:48;2.00;99.90
51839;DHT22;37886;53.174;6.368;2023-04-03T00:51:24;2.00;99.90
51839;DHT22;37886;53.174;6.368;2023-04-03T00:54:03;2.00;99.90
51839;DHT22;37886;53.174;6.368;2023-04-03T00:56:31;2.00;99.90
51839;DHT22;37886;53.174;6.368;2023-04-03T01:09:03;1.80;99.90
51839;DHT22;37886;53.174;6.368;2023-04-03T01:11:29;1.80;99.90
51839;DHT22;37886;53.174;6.368;2023-04-03T01:13:55;1.80;99.90
51839;DHT22;37886;53.174;6.368;2023-04-03T01:16:27;1.80;99.90
51839;DHT22;37886;53.174;6.368;2023-04-03T01:19:15;1.80;99.90
51839;DHT22;37886;53.174;6.368;2023-04-03T01:24:37;1.70;99.90
51839;DHT22;37886;53.174;6.368;2023-04-03T01:27:06;1.70;99.90
51839;DHT22;37886;53.174;6.368;2023-04-03T01:29:32;1.70;99.90
51839;DHT22;37886;53.174;6.368;2023-04-03T01:32:00;1.60;99.90
51839;DHT22;37886;53.174;6.368;2023-04-03T01:34:27;1.60;99.90
51839;DHT22;37886;53.174;6.368;2023-04-03T01:36:53;1.60;99.90
51839;DHT22;37886;53.174;6.368;2023-04-03T01:39:20;1.50;99.90
51839;DHT22;37886;53.174;6.368;2023-04-03T01:41:47;1.50;99.90
51839;DHT22;37886;53.174;6.368;2023-04-03T01:44:13;1.50;99.90
51839;DHT22;37886;53.174;6.368;2023-04-03T01:46:38;1.50;99.90
51839;DHT22;37886;53.174;6.368;2023-04-03T01:49:04;1.40;99.90
51839;DHT22;37886;53.174;6.368;2023-04-03T01:51:30;1.50;99.90
51839;DHT22;37886;53.174;6.368;2023-04-03T01:53:56;1.40;99.90
51839;DHT22;37886;53.174;6.368;2023-04-03T01:56:22;1.40;99.90
51839;DHT22;37886;53.174;6.368;2023-04-03T01:58:48;1.40;99.90
51839;DHT22;37886;53.174;6.368;2023-04-03T02:01:13;1.40;99.90
51839;DHT22;37886;53.174;6.368;2023-04-03T02:03:40;1.30;99.90
51839;DHT22;37886;53.174;6.368;2023-04-03T02:06:06;1.30;99.90
51839;DHT22;37886;53.174;6.368;2023-04-03T02:08:32;1.30;99.90
51839;DHT22;37886;53.174;6.368;2023-04-03T02:10:57;1.30;99.90
51839;DHT22;37886;53.174;6.368;2023-04-03T02:13:23;1.20;99.90
51839;DHT22;37886;53.174;6.368;2023-04-03T02:15:49;1.10;99.90
51839;DHT22;37886;53.174;6.368;2023-04-03T02:18:15;1.20;99.90
51839;DHT22;37886;53.174;6.368;2023-04-03T02:20:40;1.20;99.90
51839;DHT22;37886;53.174;6.368;2023-04-03T02:23:06;1.10;99.90
51839;DHT22;37886;53.174;6.368;2023-04-03T02:25:32;1.10;99.90
51839;DHT22;37886;53.174;6.368;2023-04-03T02:27:58;1.10;99.90
51839;DHT22;37886;53.174;6.368;2023-04-03T02:30:24;1.00;99.90
51839;DHT22;37886;53.174;6.368;2023-04-03T02:32:50;1.00;99.90
51839;DHT22;37886;53.174;6.368;2023-04-03T02:35:16;1.00;99.90
51839;DHT22;37886;53.174;6.368;2023-04-03T02:37:42;0.90;99.90
51839;DHT22;37886;53.174;6.368;2023-04-03T02:40:08;0.90;99.90
51839;DHT22;37886;53.174;6.368;2023-04-03T02:42:33;0.80;99.90
51839;DHT22;37886;53.174;6.368;2023-04-03T02:44:59;0.80;99.90
51839;DHT22;37886;53.174;6.368;2023-04-03T02:47:28;0.70;99.90
51839;DHT22;37886;53.174;6.368;2023-04-03T02:49:53;0.70;99.90
51839;DHT22;37886;53.174;6.368;2023-04-03T02:52:20;0.70;99.90
51839;DHT22;37886;53.174;6.368;2023-04-03T02:54:46;0.60;99.90
51839;DHT22;37886;53.174;6.368;2023-04-03T02:57:11;0.60;99.90
51839;DHT22;37886;53.174;6.368;2023-04-03T02:59:37;0.60;99.90
51839;DHT22;37886;53.174;6.368;2023-04-03T03:02:07;0.60;99.90
51839;DHT22;37886;53.174;6.368;2023-04-03T03:04:33;0.50;99.90
51839;DHT22;37886;53.174;6.368;2023-04-03T03:06:59;0.60;99.90
51839;DHT22;37886;53.174;6.368;2023-04-03T03:09:24;0.50;99.90
51839;DHT22;37886;53.174;6.368;2023-04-03T03:11:51;0.50;99.90
51839;DHT22;37886;53.174;6.368;2023-04-03T03:14:16;0.40;99.90
51839;DHT22;37886;53.174;6.368;2023-04-03T03:16:42;0.40;99.90
51839;DHT22;37886;53.174;6.368;2023-04-03T03:19:08;0.30;99.90
51839;DHT22;37886;53.174;6.368;2023-04-03T03:21:33;0.30;99.90
51839;DHT22;37886;53.174;6.368;2023-04-03T03:23:59;0.20;99.90
51839;DHT22;37886;53.174;6.368;2023-04-03T03:26:25;0.10;99.90
51839;DHT22;37886;53.174;6.368;2023-04-03T03:28:51;0.00;99.90
51839;DHT22;37886;53.174;6.368;2023-04-03T03:31:16;0.00;99.90
51839;DHT22;37886;53.174;6.368;2023-04-03T03:33:42;0.00;99.90
51839;DHT22;37886;53.174;6.368;2023-04-03T03:36:08;-0.10;99.90
51839;DHT22;37886;53.174;6.368;2023-04-03T03:38:33;-0.10;99.90
51839;DHT22;37886;53.174;6.368;2023-04-03T03:40:59;-0.20;99.90
51839;DHT22;37886;53.174;6.368;2023-04-03T03:43:25;-0.30;99.90
51839;DHT22;37886;53.174;6.368;2023-04-03T03:45:51;-0.30;99.90
51839;DHT22;37886;53.174;6.368;2023-04-03T03:48:18;-0.30;99.90
51839;DHT22;37886;53.174;6.368;2023-04-03T03:50:44;-0.30;99.90
51839;DHT22;37886;53.174;6.368;2023-04-03T03:53:09;-0.30;99.90
51839;DHT22;37886;53.174;6.368;2023-04-03T03:55:35;-0.30;99.90
51839;DHT22;37886;53.174;6.368;2023-04-03T03:58:01;-0.40;99.90
51839;DHT22;37886;53.174;6.368;2023-04-03T04:00:27;-0.40;99.90
51839;DHT22;37886;53.174;6.368;2023-04-03T04:02:53;-0.30;99.90
51839;DHT22;37886;53.174;6.368;2023-04-03T04:05:19;-0.30;99.90
51839;DHT22;37886;53.174;6.368;2023-04-03T04:07:45;-0.20;99.90
51839;DHT22;37886;53.174;6.368;2023-04-03T04:10:10;-0.30;99.90
51839;DHT22;37886;53.174;6.368;2023-04-03T04:12:36;-0.20;99.90
51839;DHT22;37886;53.174;6.368;2023-04-03T04:15:03;-0.20;99.90
51839;DHT22;37886;53.174;6.368;2023-04-03T04:17:28;-0.20;99.90
51839;DHT22;37886;53.174;6.368;2023-04-03T04:19:54;-0.20;99.90
51839;DHT22;37886;53.174;6.368;2023-04-03T04:22:20;-0.20;99.90
51839;DHT22;37886;53.174;6.368;2023-04-03T04:24:45;-0.20;99.90
51839;DHT22;37886;53.174;6.368;2023-04-03T04:27:11;-0.20;99.90
51839;DHT22;37886;53.174;6.368;2023-04-03T04:29:37;-0.10;99.90
51839;DHT22;37886;53.174;6.368;2023-04-03T04:32:03;-0.20;99.90
51839;DHT22;37886;53.174;6.368;2023-04-03T04:34:29;-0.20;99.90
51839;DHT22;37886;53.174;6.368;2023-04-03T04:36:55;-0.30;99.90
51839;DHT22;37886;53.174;6.368;2023-04-03T04:39:21;-0.30;99.90
51839;DHT22;37886;53.174;6.368;2023-04-03T04:41:47;-0.30;99.90
51839;DHT22;37886;53.174;6.368;2023-04-03T04:44:12;-0.30;99.90
51839;DHT22;37886;53.174;6.368;2023-04-03T04:46:38;-0.30;99.90
51839;DHT22;37886;53.174;6.368;2023-04-03T04:49:04;-0.30;99.90
51839;DHT22;37886;53.174;6.368;2023-04-03T04:51:30;-0.30;99.90
51839;DHT22;37886;53.174;6.368;2023-04-03T04:53:55;-0.40;99.90
51839;DHT22;37886;53.174;6.368;2023-04-03T04:56:21;-0.40;99.90
51839;DHT22;37886;53.174;6.368;2023-04-03T04:58:47;-0.50;99.90
51839;DHT22;37886;53.174;6.368;2023-04-03T05:01:12;-0.50;99.90
51839;DHT22;37886;53.174;6.368;2023-04-03T05:03:38;-0.60;99.90
51839;DHT22;37886;53.174;6.368;2023-04-03T05:06:04;-0.60;99.90
51839;DHT22;37886;53.174;6.368;2023-04-03T05:08:30;-0.60;99.90
51839;DHT22;37886;53.174;6.368;2023-04-03T05:10:57;-0.50;99.90
51839;DHT22;37886;53.174;6.368;2023-04-03T05:13:22;-0.50;99.90
51839;DHT22;37886;53.174;6.368;2023-04-03T05:15:48;-0.50;99.90
51839;DHT22;37886;53.174;6.368;2023-04-03T05:18:14;-0.40;99.90
51839;DHT22;37886;53.174;6.368;2023-04-03T05:20:39;-0.40;99.90
51839;DHT22;37886;53.174;6.368;2023-04-03T05:23:05;-0.40;99.90
51839;DHT22;37886;53.174;6.368;2023-04-03T05:25:31;-0.40;99.90
51839;DHT22;37886;53.174;6.368;2023-04-03T05:27:57;-0.40;99.90
51839;DHT22;37886;53.174;6.368;2023-04-03T05:30:22;-0.40;99.90
51839;DHT22;37886;53.174;6.368;2023-04-03T05:32:48;-0.30;99.90
51839;DHT22;37886;53.174;6.368;2023-04-03T05:35:14;-0.30;99.90
51839;DHT22;37886;53.174;6.368;2023-04-03T05:37:40;-0.20;99.90
51839;DHT22;37886;53.174;6.368;2023-04-03T05:40:07;-0.10;99.90
51839;DHT22;37886;53.174;6.368;2023-04-03T05:42:33;-0.10;99.90
51839;DHT22;37886;53.174;6.368;2023-04-03T05:44:58;-0.10;99.90
51839;DHT22;37886;53.174;6.368;2023-04-03T05:47:24;0.00;99.90
51839;DHT22;37886;53.174;6.368;2023-04-03T05:49:50;0.10;99.90
51839;DHT22;37886;53.174;6.368;2023-04-03T05:54:50;0.20;99.90
51839;DHT22;37886;53.174;6.368;2023-04-03T05:57:16;0.30;99.90
51839;DHT22;37886;53.174;6.368;2023-04-03T05:59:45;0.40;99.90
51839;DHT22;37886;53.174;6.368;2023-04-03T06:02:23;0.40;99.90
51839;DHT22;37886;53.174;6.368;2023-04-03T06:04:49;0.50;99.90
51839;DHT22;37886;53.174;6.368;2023-04-03T06:07:17;0.50;99.90
51839;DHT22;37886;53.174;6.368;2023-04-03T06:09:47;0.60;99.90
51839;DHT22;37886;53.174;6.368;2023-04-03T06:12:13;0.70;99.90
51839;DHT22;37886;53.174;6.368;2023-04-03T06:14:39;0.70;99.90
51839;DHT22;37886;53.174;6.368;2023-04-03T06:17:05;0.80;99.90
51839;DHT22;37886;53.174;6.368;2023-04-03T06:19:31;1.00;99.90
51839;DHT22;37886;53.174;6.368;2023-04-03T06:21:57;1.00;99.90
51839;DHT22;37886;53.174;6.368;2023-04-03T06:24:23;1.10;99.90
51839;DHT22;37886;53.174;6.368;2023-04-03T06:26:51;1.20;99.90
51839;DHT22;37886;53.174;6.368;2023-04-03T06:29:21;1.20;99.90
51839;DHT22;37886;53.174;6.368;2023-04-03T06:31:47;1.30;99.90
51839;DHT22;37886;53.174;6.368;2023-04-03T06:34:13;1.40;99.90
51839;DHT22;37886;53.174;6.368;2023-04-03T06:36:39;1.40;99.90
51839;DHT22;37886;53.174;6.368;2023-04-03T06:39:06;1.50;99.90
51839;DHT22;37886;53.174;6.368;2023-04-03T06:41:32;1.50;99.90
51839;DHT22;37886;53.174;6.368;2023-04-03T06:43:58;1.60;99.90
51839;DHT22;37886;53.174;6.368;2023-04-03T06:46:25;1.70;99.90
51839;DHT22;37886;53.174;6.368;2023-04-03T06:48:51;1.70;99.90
51839;DHT22;37886;53.174;6.368;2023-04-03T06:51:22;1.80;99.90
51839;DHT22;37886;53.174;6.368;2023-04-03T06:53:52;1.90;99.90
51839;DHT22;37886;53.174;6.368;2023-04-03T06:56:18;2.00;99.90
51839;DHT22;37886;53.174;6.368;2023-04-03T06:58:47;2.10;99.90
51839;DHT22;37886;53.174;6.368;2023-04-03T07:01:14;2.10;99.90
51839;DHT22;37886;53.174;6.368;2023-04-03T07:03:41;2.10;99.90
51839;DHT22;37886;53.174;6.368;2023-04-03T07:06:09;2.10;99.90
51839;DHT22;37886;53.174;6.368;2023-04-03T07:08:36;2.30;99.90
51839;DHT22;37886;53.174;6.368;2023-04-03T07:11:02;2.30;99.90
51839;DHT22;37886;53.174;6.368;2023-04-03T07:13:27;2.50;99.90
51839;DHT22;37886;53.174;6.368;2023-04-03T07:15:54;2.50;99.90
51839;DHT22;37886;53.174;6.368;2023-04-03T07:18:20;2.50;99.90
51839;DHT22;37886;53.174;6.368;2023-04-03T07:20:47;2.60;99.90
51839;DHT22;37886;53.174;6.368;2023-04-03T07:23:12;2.60;99.90
51839;DHT22;37886;53.174;6.368;2023-04-03T07:25:46;2.70;99.90
51839;DHT22;37886;53.174;6.368;2023-04-03T07:28:13;2.70;99.90
51839;DHT22;37886;53.174;6.368;2023-04-03T07:30:46;2.80;99.90
51839;DHT22;37886;53.174;6.368;2023-04-03T07:33:13;2.90;99.90
51839;DHT22;37886;53.174;6.368;2023-04-03T07:35:40;2.90;99.90
51839;DHT22;37886;53.174;6.368;2023-04-03T07:38:06;2.90;99.90
51839;DHT22;37886;53.174;6.368;2023-04-03T07:40:32;3.10;99.90
51839;DHT22;37886;53.174;6.368;2023-04-03T07:42:58;3.20;99.90
51839;DHT22;37886;53.174;6.368;2023-04-03T07:45:25;3.30;99.90
51839;DHT22;37886;53.174;6.368;2023-04-03T07:47:51;3.30;99.90
51839;DHT22;37886;53.174;6.368;2023-04-03T07:50:17;3.40;99.90
51839;DHT22;37886;53.174;6.368;2023-04-03T07:52:43;3.40;99.90
51839;DHT22;37886;53.174;6.368;2023-04-03T07:55:09;3.30;99.90
51839;DHT22;37886;53.174;6.368;2023-04-03T07:57:34;3.50;99.90
51839;DHT22;37886;53.174;6.368;2023-04-03T08:00:01;3.60;99.90
51839;DHT22;37886;53.174;6.368;2023-04-03T08:02:26;3.60;99.90
51839;DHT22;37886;53.174;6.368;2023-04-03T08:04:52;3.80;99.90
51839;DHT22;37886;53.174;6.368;2023-04-03T08:07:18;3.90;99.90
51839;DHT22;37886;53.174;6.368;2023-04-03T08:09:43;4.00;99.90
51839;DHT22;37886;53.174;6.368;2023-04-03T08:12:10;4.10;99.90
51839;DHT22;37886;53.174;6.368;2023-04-03T08:14:37;4.10;99.90
51839;DHT22;37886;53.174;6.368;2023-04-03T08:17:03;4.10;99.90
51839;DHT22;37886;53.174;6.368;2023-04-03T08:19:30;4.10;99.90
51839;DHT22;37886;53.174;6.368;2023-04-03T08:21:56;4.10;99.90
51839;DHT22;37886;53.174;6.368;2023-04-03T08:24:24;4.20;99.90
51839;DHT22;37886;53.174;6.368;2023-04-03T08:26:50;4.30;99.90
51839;DHT22;37886;53.174;6.368;2023-04-03T08:29:16;4.40;99.90
51839;DHT22;37886;53.174;6.368;2023-04-03T08:31:42;4.50;99.90
51839;DHT22;37886;53.174;6.368;2023-04-03T08:34:08;4.60;99.90
51839;DHT22;37886;53.174;6.368;2023-04-03T08:36:34;4.60;99.90
51839;DHT22;37886;53.174;6.368;2023-04-03T08:39:00;4.60;99.90
51839;DHT22;37886;53.174;6.368;2023-04-03T08:41:31;4.70;99.90
51839;DHT22;37886;53.174;6.368;2023-04-03T08:46:51;4.80;99.90
51839;DHT22;37886;53.174;6.368;2023-04-03T08:51:54;4.80;99.90
51839;DHT22;37886;53.174;6.368;2023-04-03T08:54:30;4.90;99.90
51839;DHT22;37886;53.174;6.368;2023-04-03T08:57:00;5.10;99.90
51839;DHT22;37886;53.174;6.368;2023-04-03T08:59:34;5.10;99.90
51839;DHT22;37886;53.174;6.368;2023-04-03T09:02:04;5.10;99.90
51839;DHT22;37886;53.174;6.368;2023-04-03T09:04:32;5.20;99.90
51839;DHT22;37886;53.174;6.368;2023-04-03T09:07:05;5.30;99.90
51839;DHT22;37886;53.174;6.368;2023-04-03T09:09:43;5.20;99.90
51839;DHT22;37886;53.174;6.368;2023-04-03T09:12:34;5.40;99.90
51839;DHT22;37886;53.174;6.368;2023-04-03T09:15:14;5.50;99.90
51839;DHT22;37886;53.174;6.368;2023-04-03T09:26:13;5.80;99.90
51839;DHT22;37886;53.174;6.368;2023-04-03T09:28:40;5.80;99.90
51839;DHT22;37886;53.174;6.368;2023-04-03T09:31:40;5.90;99.90
51839;DHT22;37886;53.174;6.368;2023-04-03T09:34:25;6.10;99.90
51839;DHT22;37886;53.174;6.368;2023-04-03T09:36:58;6.10;99.90
51839;DHT22;37886;53.174;6.368;2023-04-03T09:39:29;6.20;99.90
51839;DHT22;37886;53.174;6.368;2023-04-03T09:44:33;6.40;99.90
51839;DHT22;37886;53.174;6.368;2023-04-03T09:47:37;6.50;99.90
51839;DHT22;37886;53.174;6.368;2023-04-03T09:50:19;6.40;99.90
51839;DHT22;37886;53.174;6.368;2023-04-03T09:52:48;6.60;99.90
51839;DHT22;37886;53.174;6.368;2023-04-03T09:55:15;6.70;99.90
51839;DHT22;37886;53.174;6.368;2023-04-03T09:57:41;6.60;99.90
51839;DHT22;37886;53.174;6.368;2023-04-03T10:00:20;6.60;99.90
51839;DHT22;37886;53.174;6.368;2023-04-03T10:02:50;6.70;99.90
51839;DHT22;37886;53.174;6.368;2023-04-03T10:05:39;6.70;99.60
51839;DHT22;37886;53.174;6.368;2023-04-03T10:10:34;6.70;99.90
51839;DHT22;37886;53.174;6.368;2023-04-03T10:13:09;6.70;99.00
51839;DHT22;37886;53.174;6.368;2023-04-03T10:15:50;6.80;99.40
51839;DHT22;37886;53.174;6.368;2023-04-03T10:21:32;7.00;98.30
51839;DHT22;37886;53.174;6.368;2023-04-03T10:40:59;7.30;96.60
51839;DHT22;37886;53.174;6.368;2023-04-03T10:43:49;7.30;95.70
51839;DHT22;37886;53.174;6.368;2023-04-03T10:49:17;7.40;96.50
51839;DHT22;37886;53.174;6.368;2023-04-03T10:57:31;7.70;93.60
51839;DHT22;37886;53.174;6.368;2023-04-03T11:00:02;7.80;93.70
51839;DHT22;37886;53.174;6.368;2023-04-03T11:02:45;7.70;93.40
51839;DHT22;37886;53.174;6.368;2023-04-03T11:08:07;7.90;93.20
51839;DHT22;37886;53.174;6.368;2023-04-03T11:10:44;8.20;94.30
51839;DHT22;37886;53.174;6.368;2023-04-03T11:13:19;8.30;93.20
51839;DHT22;37886;53.174;6.368;2023-04-03T11:15:48;8.20;87.00
51839;DHT22;37886;53.174;6.368;2023-04-03T11:18:23;8.20;88.00
51839;DHT22;37886;53.174;6.368;2023-04-03T11:21:01;8.30;87.60
51839;DHT22;37886;53.174;6.368;2023-04-03T11:23:34;8.40;86.30
51839;DHT22;37886;53.174;6.368;2023-04-03T11:26:22;8.30;84.80
51839;DHT22;37886;53.174;6.368;2023-04-03T11:28:53;8.50;84.60
51839;DHT22;37886;53.174;6.368;2023-04-03T11:36:56;8.60;85.30
51839;DHT22;37886;53.174;6.368;2023-04-03T11:39:29;8.70;85.90
51839;DHT22;37886;53.174;6.368;2023-04-03T11:44:42;9.10;87.30
51839;DHT22;37886;53.174;6.368;2023-04-03T11:47:12;9.30;84.70
51839;DHT22;37886;53.174;6.368;2023-04-03T11:50:03;9.40;83.20
51839;DHT22;37886;53.174;6.368;2023-04-03T12:21:20;11.30;76.60
51839;DHT22;37886;53.174;6.368;2023-04-03T12:32:10;11.60;77.50
51839;DHT22;37886;53.174;6.368;2023-04-03T12:37:27;11.70;70.60
51839;DHT22;37886;53.174;6.368;2023-04-03T12:45:22;12.00;69.90
51839;DHT22;37886;53.174;6.368;2023-04-03T12:47:55;11.80;68.80
51839;DHT22;37886;53.174;6.368;2023-04-03T12:50:24;11.90;68.00
51839;DHT22;37886;53.174;6.368;2023-04-03T12:52:58;11.90;66.50
51839;DHT22;37886;53.174;6.368;2023-04-03T12:55:24;11.90;68.80
51839;DHT22;37886;53.174;6.368;2023-04-03T12:57:50;12.10;72.10
51839;DHT22;37886;53.174;6.368;2023-04-03T13:00:33;12.20;73.50
51839;DHT22;37886;53.174;6.368;2023-04-03T13:03:03;12.00;72.20
51839;DHT22;37886;53.174;6.368;2023-04-03T13:05:31;12.20;67.60
51839;DHT22;37886;53.174;6.368;2023-04-03T13:08:03;12.40;68.60
51839;DHT22;37886;53.174;6.368;2023-04-03T13:10:31;12.70;67.50
51839;DHT22;37886;53.174;6.368;2023-04-03T13:13:09;12.30;67.90
51839;DHT22;37886;53.174;6.368;2023-04-03T13:15:45;12.70;72.70
51839;DHT22;37886;53.174;6.368;2023-04-03T13:18:34;12.60;65.30
51839;DHT22;37886;53.174;6.368;2023-04-03T13:21:11;12.50;65.50
51839;DHT22;37886;53.174;6.368;2023-04-03T13:23:41;12.70;66.90
51839;DHT22;37886;53.174;6.368;2023-04-03T13:26:08;12.50;64.60
51839;DHT22;37886;53.174;6.368;2023-04-03T13:28:35;12.50;64.40
51839;DHT22;37886;53.174;6.368;2023-04-03T13:33:36;12.60;68.50
51839;DHT22;37886;53.174;6.368;2023-04-03T13:36:17;12.80;63.70
51839;DHT22;37886;53.174;6.368;2023-04-03T13:38:44;12.40;63.30
51839;DHT22;37886;53.174;6.368;2023-04-03T13:41:36;12.60;65.90
51839;DHT22;37886;53.174;6.368;2023-04-03T13:44:26;12.60;65.00
51839;DHT22;37886;53.174;6.368;2023-04-03T13:49:40;12.90;63.80
51839;DHT22;37886;53.174;6.368;2023-04-03T13:55:00;12.80;62.30
51839;DHT22;37886;53.174;6.368;2023-04-03T13:57:27;13.10;64.10
51839;DHT22;37886;53.174;6.368;2023-04-03T13:59:54;13.20;66.20
51839;DHT22;37886;53.174;6.368;2023-04-03T14:02:31;13.40;60.20
51839;DHT22;37886;53.174;6.368;2023-04-03T14:04:59;13.20;62.30
51839;DHT22;37886;53.174;6.368;2023-04-03T14:07:29;13.00;63.00
51839;DHT22;37886;53.174;6.368;2023-04-03T14:09:55;13.30;62.60
51839;DHT22;37886;53.174;6.368;2023-04-03T14:12:26;13.70;64.30
51839;DHT22;37886;53.174;6.368;2023-04-03T14:14:52;14.30;67.40
51839;DHT22;37886;53.174;6.368;2023-04-03T14:17:22;14.20;63.30
51839;DHT22;37886;53.174;6.368;2023-04-03T14:19:49;13.50;61.40
51839;DHT22;37886;53.174;6.368;2023-04-03T14:22:21;13.40;61.10
51839;DHT22;37886;53.174;6.368;2023-04-03T14:24:48;13.60;61.60
51839;DHT22;37886;53.174;6.368;2023-04-03T14:27:20;13.90;62.30
51839;DHT22;37886;53.174;6.368;2023-04-03T14:29:47;14.10;63.10
51839;DHT22;37886;53.174;6.368;2023-04-03T14:32:14;14.50;65.50
51839;DHT22;37886;53.174;6.368;2023-04-03T14:34:42;14.70;66.90
51839;DHT22;37886;53.174;6.368;2023-04-03T14:37:13;15.00;67.50
51839;DHT22;37886;53.174;6.368;2023-04-03T14:39:40;15.00;67.30
51839;DHT22;37886;53.174;6.368;2023-04-03T14:42:09;14.70;65.40
51839;DHT22;37886;53.174;6.368;2023-04-03T14:44:36;15.00;65.80
51839;DHT22;37886;53.174;6.368;2023-04-03T14:47:03;15.20;67.30
51839;DHT22;37886;53.174;6.368;2023-04-03T14:49:29;15.10;65.10
51839;DHT22;37886;53.174;6.368;2023-04-03T14:51:56;14.50;64.60
51839;DHT22;37886;53.174;6.368;2023-04-03T14:54:23;14.80;67.30
51839;DHT22;37886;53.174;6.368;2023-04-03T14:56:54;14.30;65.50
51839;DHT22;37886;53.174;6.368;2023-04-03T14:59:21;14.60;67.50
51839;DHT22;37886;53.174;6.368;2023-04-03T15:01:47;14.60;66.90
51839;DHT22;37886;53.174;6.368;2023-04-03T15:04:19;14.60;66.50
51839;DHT22;37886;53.174;6.368;2023-04-03T15:06:47;15.10;64.10
51839;DHT22;37886;53.174;6.368;2023-04-03T15:09:21;14.70;65.30
51839;DHT22;37886;53.174;6.368;2023-04-03T15:11:48;15.10;66.70
51839;DHT22;37886;53.174;6.368;2023-04-03T15:14:13;15.00;65.80
51839;DHT22;37886;53.174;6.368;2023-04-03T15:16:39;15.90;65.00
51839;DHT22;37886;53.174;6.368;2023-04-03T15:19:05;14.90;65.10
51839;DHT22;37886;53.174;6.368;2023-04-03T15:21:31;14.90;66.90
51839;DHT22;37886;53.174;6.368;2023-04-03T15:23:56;14.10;67.60
51839;DHT22;37886;53.174;6.368;2023-04-03T15:26:22;13.50;69.60
51839;DHT22;37886;53.174;6.368;2023-04-03T15:28:48;13.50;73.10
51839;DHT22;37886;53.174;6.368;2023-04-03T15:31:14;13.00;74.40
51839;DHT22;37886;53.174;6.368;2023-04-03T15:33:39;12.60;77.60
51839;DHT22;37886;53.174;6.368;2023-04-03T15:36:06;12.00;78.40
51839;DHT22;37886;53.174;6.368;2023-04-03T15:38:31;11.70;81.70
51839;DHT22;37886;53.174;6.368;2023-04-03T15:40:57;11.50;83.70
51839;DHT22;37886;53.174;6.368;2023-04-03T15:43:23;11.30;83.50
51839;DHT22;37886;53.174;6.368;2023-04-03T15:45:49;11.30;84.40
51839;DHT22;37886;53.174;6.368;2023-04-03T15:48:16;11.10;79.40
51839;DHT22;37886;53.174;6.368;2023-04-03T15:50:42;11.00;79.40
51839;DHT22;37886;53.174;6.368;2023-04-03T15:53:09;11.20;79.10
51839;DHT22;37886;53.174;6.368;2023-04-03T15:55:36;11.30;80.40
51839;DHT22;37886;53.174;6.368;2023-04-03T15:58:02;11.80;78.60
51839;DHT22;37886;53.174;6.368;2023-04-03T16:00:29;11.60;78.60
51839;DHT22;37886;53.174;6.368;2023-04-03T16:03:21;11.30;82.60
51839;DHT22;37886;53.174;6.368;2023-04-03T16:05:48;11.40;79.90
51839;DHT22;37886;53.174;6.368;2023-04-03T16:08:15;11.70;77.80
51839;DHT22;37886;53.174;6.368;2023-04-03T16:10:41;11.20;78.60
51839;DHT22;37886;53.174;6.368;2023-04-03T16:13:07;11.30;76.10
51839;DHT22;37886;53.174;6.368;2023-04-03T16:15:34;10.90;79.40
51839;DHT22;37886;53.174;6.368;2023-04-03T16:18:00;11.10;82.40
51839;DHT22;37886;53.174;6.368;2023-04-03T16:20:26;11.60;78.60
51839;DHT22;37886;53.174;6.368;2023-04-03T16:22:53;12.20;74.90
51839;DHT22;37886;53.174;6.368;2023-04-03T16:25:19;12.70;73.10
51839;DHT22;37886;53.174;6.368;2023-04-03T16:27:44;12.60;71.80
51839;DHT22;37886;53.174;6.368;2023-04-03T16:30:10;13.30;72.30
51839;DHT22;37886;53.174;6.368;2023-04-03T16:32:38;13.10;70.40
51839;DHT22;37886;53.174;6.368;2023-04-03T16:35:05;12.90;72.10
51839;DHT22;37886;53.174;6.368;2023-04-03T16:37:31;12.80;72.30
51839;DHT22;37886;53.174;6.368;2023-04-03T16:39:56;13.10;71.60
51839;DHT22;37886;53.174;6.368;2023-04-03T16:42:24;12.60;72.70
51839;DHT22;37886;53.174;6.368;2023-04-03T16:44:50;12.40;73.60
51839;DHT22;37886;53.174;6.368;2023-04-03T16:47:16;11.80;76.70
51839;DHT22;37886;53.174;6.368;2023-04-03T16:49:45;11.70;77.30
51839;DHT22;37886;53.174;6.368;2023-04-03T16:52:11;11.20;80.00
51839;DHT22;37886;53.174;6.368;2023-04-03T16:54:36;10.10;85.20
51839;DHT22;37886;53.174;6.368;2023-04-03T16:57:02;9.40;89.30
51839;DHT22;37886;53.174;6.368;2023-04-03T16:59:28;9.30;90.70
51839;DHT22;37886;53.174;6.368;2023-04-03T17:01:54;9.20;91.30
51839;DHT22;37886;53.174;6.368;2023-04-03T17:04:20;8.80;92.60
51839;DHT22;37886;53.174;6.368;2023-04-03T17:06:46;8.70;93.40
51839;DHT22;37886;53.174;6.368;2023-04-03T17:09:11;8.50;94.40
51839;DHT22;37886;53.174;6.368;2023-04-03T17:11:37;8.50;94.90
51839;DHT22;37886;53.174;6.368;2023-04-03T17:14:04;8.20;95.70
51839;DHT22;37886;53.174;6.368;2023-04-03T17:16:31;7.80;97.00
51839;DHT22;37886;53.174;6.368;2023-04-03T17:18:58;7.60;98.10
51839;DHT22;37886;53.174;6.368;2023-04-03T17:21:24;7.40;99.50
51839;DHT22;37886;53.174;6.368;2023-04-03T17:23:54;7.30;99.90
51839;DHT22;37886;53.174;6.368;2023-04-03T17:26:23;7.20;99.90
51839;DHT22;37886;53.174;6.368;2023-04-03T17:28:50;7.10;99.90
51839;DHT22;37886;53.174;6.368;2023-04-03T17:31:16;6.90;99.90
51839;DHT22;37886;53.174;6.368;2023-04-03T17:33:41;6.90;99.90
51839;DHT22;37886;53.174;6.368;2023-04-03T17:36:07;6.70;99.90
51839;DHT22;37886;53.174;6.368;2023-04-03T17:38:33;6.60;99.90
51839;DHT22;37886;53.174;6.368;2023-04-03T17:41:05;6.50;99.90
51839;DHT22;37886;53.174;6.368;2023-04-03T17:43:31;6.50;99.90
51839;DHT22;37886;53.174;6.368;2023-04-03T17:46:02;6.40;99.90
51839;DHT22;37886;53.174;6.368;2023-04-03T17:48:32;6.20;99.90
51839;DHT22;37886;53.174;6.368;2023-04-03T17:51:02;6.10;99.90
51839;DHT22;37886;53.174;6.368;2023-04-03T17:53:28;6.10;99.90